Time;durP1;ratioP1;P1;durP2;ratioP2;P2;SDS_P1;SDS_P2;PMS_P1;PMS_P2;Temp;Humidity;BMP_temperature;BMP_pressure;BME280_temperature;BME280_humidity;BME280_pressure;Samples;Min_cycle;Max_cycle;Signal;HPM_P1;HPM_P2
2022/09/04 00:02:22;;;;;;;4.50;1.58;;;16.70;99.90;;;;;;6328034;28;20055;-80
2022/09/04 00:05:30;;;;;;;1.95;0.80;;;16.60;99.90;;;;;;6328849;28;20055;-80
2022/09/04 00:08:52;;;;;;;2.30;0.82;;;16.60;99.90;;;;;;6327418;28;20103;-81
2022/09/04 00:12:03;;;;;;;2.78;1.13;;;16.60;99.90;;;;;;6328735;28;20126;-80
2022/09/04 00:15:12;;;;;;;4.13;1.10;;;16.60;99.90;;;;;;6329835;28;20048;-80
2022/09/04 00:18:22;;;;;;;1.55;0.85;;;16.50;99.90;;;;;;6327863;28;20077;-80
2022/09/04 00:21:32;;;;;;;5.20;1.25;;;16.50;99.90;;;;;;6310227;28;20046;-79
2022/09/04 00:24:39;;;;;;;4.80;0.95;;;16.50;99.90;;;;;;6284324;28;20047;-80
2022/09/04 00:27:45;;;;;;;3.22;1.52;;;16.40;99.90;;;;;;6323764;28;20044;-81
2022/09/04 00:30:55;;;;;;;2.00;0.90;;;16.40;99.90;;;;;;6303917;28;20049;-81
2022/09/04 00:34:08;;;;;;;10.38;1.33;;;16.40;99.90;;;;;;6302934;28;20048;-81
2022/09/04 00:37:15;;;;;;;5.10;1.17;;;16.40;99.90;;;;;;6303603;28;20055;-77
2022/09/04 00:40:25;;;;;;;1.88;1.00;;;16.30;99.90;;;;;;6304406;28;20504;-79
2022/09/04 00:44:06;;;;;;;5.20;1.30;;;16.30;99.90;;;;;;6305676;28;20441;-80
2022/09/04 00:47:39;;;;;;;8.07;2.13;;;16.30;99.90;;;;;;6301110;28;20059;-80
2022/09/04 00:51:05;;;;;;;4.10;1.08;;;16.20;99.90;;;;;;6302483;28;20068;-81
2022/09/04 00:54:27;;;;;;;1.88;1.02;;;16.20;99.90;;;;;;6301743;28;20054;-81
2022/09/04 00:58:07;;;;;;;2.88;1.40;;;16.20;99.90;;;;;;6301938;28;20044;-81
2022/09/04 01:01:15;;;;;;;3.25;1.55;;;16.20;99.90;;;;;;6301988;28;20044;-77
2022/09/04 01:04:36;;;;;;;5.10;2.03;;;16.20;99.90;;;;;;6301180;28;20499;-81
2022/09/04 01:07:47;;;;;;;6.45;1.02;;;16.20;99.90;;;;;;6300621;28;20048;-78
2022/09/04 01:11:02;;;;;;;2.25;1.13;;;16.20;99.90;;;;;;6303367;28;20049;-81
2022/09/04 01:14:14;;;;;;;2.85;1.23;;;16.10;99.90;;;;;;6304468;28;20051;-80
2022/09/04 01:17:26;;;;;;;11.38;1.45;;;16.10;99.90;;;;;;6302989;28;20054;-79
2022/09/04 01:20:55;;;;;;;1.88;1.30;;;16.20;99.90;;;;;;6298454;28;20078;-79
2022/09/04 01:24:19;;;;;;;7.40;1.13;;;16.20;99.90;;;;;;6248064;28;20496;-78
2022/09/04 01:27:27;;;;;;;3.63;1.40;;;16.20;99.90;;;;;;6248943;28;20057;-79
2022/09/04 01:30:32;;;;;;;6.43;1.15;;;16.10;99.90;;;;;;6249023;28;20049;-80
2022/09/04 01:33:40;;;;;;;5.00;1.50;;;16.10;99.90;;;;;;6248203;28;20050;-79
2022/09/04 01:36:49;;;;;;;10.10;1.30;;;16.10;99.90;;;;;;6248143;28;20050;-78
2022/09/04 01:40:04;;;;;;;3.63;1.15;;;16.00;99.90;;;;;;6248405;28;20049;-79
2022/09/04 01:43:11;;;;;;;1.42;0.70;;;16.00;99.90;;;;;;6249279;28;20053;-79
2022/09/04 01:46:38;;;;;;;3.47;1.20;;;16.00;99.90;;;;;;6273205;28;20078;-78
2022/09/04 01:49:47;;;;;;;1.80;1.08;;;16.00;99.90;;;;;;6273207;28;20036;-79
2022/09/04 01:52:58;;;;;;;3.40;1.02;;;16.00;99.90;;;;;;6260726;28;20045;-79
2022/09/04 01:56:10;;;;;;;3.85;0.93;;;15.90;99.90;;;;;;6249831;28;20525;-80
2022/09/04 01:59:25;;;;;;;4.75;1.15;;;15.90;99.90;;;;;;6249318;28;20478;-79
2022/09/04 02:02:37;;;;;;;5.80;1.60;;;15.90;99.90;;;;;;6249390;28;20046;-80
2022/09/04 02:05:49;;;;;;;7.70;1.67;;;15.80;99.90;;;;;;6249524;28;20046;-79
2022/09/04 02:09:15;;;;;;;5.10;1.27;;;15.80;99.90;;;;;;6249037;28;20060;-80
2022/09/04 02:12:28;;;;;;;2.78;1.85;;;15.80;99.90;;;;;;6248785;28;20116;-80
2022/09/04 02:15:40;;;;;;;5.85;0.98;;;15.70;99.90;;;;;;6249547;28;20050;-82
2022/09/04 02:18:50;;;;;;;5.28;1.38;;;15.70;99.90;;;;;;6251642;28;20103;-80
2022/09/04 02:22:01;;;;;;;7.45;1.38;;;15.60;99.90;;;;;;6253328;28;20678;-81
2022/09/04 02:25:11;;;;;;;2.10;1.20;;;15.50;99.90;;;;;;6275986;28;20060;-81
2022/09/04 02:28:22;;;;;;;2.30;1.20;;;15.50;99.90;;;;;;6276296;28;20055;-81
2022/09/04 02:31:33;;;;;;;4.40;1.15;;;15.50;99.90;;;;;;6276254;28;20048;-81
2022/09/04 02:34:44;;;;;;;3.28;1.60;;;15.50;99.90;;;;;;6276023;28;20143;-80
2022/09/04 02:38:00;;;;;;;2.17;1.08;;;15.50;99.90;;;;;;6276170;28;20063;-80
2022/09/04 02:41:11;;;;;;;5.43;1.40;;;15.50;99.90;;;;;;6276324;28;20049;-80
2022/09/04 02:44:27;;;;;;;3.97;1.15;;;15.50;99.90;;;;;;6275874;28;20051;-80
2022/09/04 02:47:36;;;;;;;2.92;1.38;;;15.40;99.90;;;;;;6275114;28;20053;-80
2022/09/04 02:50:52;;;;;;;3.70;1.10;;;15.40;99.90;;;;;;6277544;28;20051;-81
2022/09/04 02:54:02;;;;;;;5.40;1.45;;;15.50;99.90;;;;;;6275918;28;20064;-81
2022/09/04 02:57:13;;;;;;;6.43;1.77;;;15.40;99.90;;;;;;6275300;28;20069;-80
2022/09/04 03:00:38;;;;;;;4.90;1.50;;;15.40;99.90;;;;;;6274436;28;20056;-80
2022/09/04 03:03:46;;;;;;;7.63;1.77;;;15.40;99.90;;;;;;6274597;28;20577;-80
2022/09/04 03:06:52;;;;;;;21.98;6.45;;;15.40;99.90;;;;;;6274890;28;20060;-80
2022/09/04 03:09:59;;;;;;;7.45;1.30;;;15.40;99.90;;;;;;6274691;28;20044;-80
2022/09/04 03:13:07;;;;;;;8.77;1.48;;;15.40;99.90;;;;;;6275307;28;20049;-80
2022/09/04 03:16:17;;;;;;;6.47;1.45;;;15.40;99.90;;;;;;6275042;28;20041;-80
2022/09/04 03:19:27;;;;;;;3.53;2.72;;;15.30;99.90;;;;;;6275360;28;20057;-80
2022/09/04 03:22:34;;;;;;;3.72;1.30;;;15.30;99.90;;;;;;6275678;28;20045;-80
2022/09/04 03:26:00;;;;;;;5.28;1.08;;;15.30;99.90;;;;;;6266913;28;20055;-80
2022/09/04 03:29:10;;;;;;;4.82;1.23;;;15.30;99.90;;;;;;6275551;28;20053;-80
2022/09/04 03:32:18;;;;;;;5.43;1.20;;;15.30;99.90;;;;;;6274876;28;20053;-80
2022/09/04 03:35:31;;;;;;;2.75;1.38;;;15.30;99.90;;;;;;6274534;28;20056;-81
2022/09/04 03:38:43;;;;;;;2.67;1.52;;;15.30;99.90;;;;;;6275239;28;20060;-80
2022/09/04 03:41:57;;;;;;;3.00;1.77;;;15.30;99.90;;;;;;6274526;28;20514;-80
2022/09/04 03:45:10;;;;;;;4.15;1.50;;;15.20;99.90;;;;;;6274382;28;20059;-80
2022/09/04 03:48:27;;;;;;;3.25;1.00;;;15.20;99.90;;;;;;6275358;28;20406;-80
2022/09/04 03:51:41;;;;;;;12.13;1.45;;;15.20;99.90;;;;;;6275489;28;20045;-81
2022/09/04 03:55:00;;;;;;;8.75;1.98;;;15.20;99.90;;;;;;6275187;28;20426;-80
2022/09/04 03:58:10;;;;;;;5.35;1.50;;;15.10;99.90;;;;;;6274752;28;20053;-79
2022/09/04 04:01:22;;;;;;;4.05;1.02;;;15.10;99.90;;;;;;6273968;28;20045;-81
2022/09/04 04:04:48;;;;;;;1.80;0.95;;;15.10;99.90;;;;;;6273768;28;20067;-81
2022/09/04 04:08:04;;;;;;;4.15;1.38;;;15.00;99.90;;;;;;6274347;28;20047;-81
2022/09/04 04:11:24;;;;;;;4.93;1.27;;;15.00;99.90;;;;;;6274538;28;20064;-80
2022/09/04 04:14:38;;;;;;;5.20;1.73;;;15.00;99.90;;;;;;6300275;28;20048;-80
2022/09/04 04:18:04;;;;;;;4.57;1.27;;;15.00;99.90;;;;;;6279858;28;20049;-80
2022/09/04 04:21:13;;;;;;;5.65;1.65;;;15.00;99.90;;;;;;6274935;28;20498;-81
2022/09/04 04:24:46;;;;;;;3.47;1.70;;;15.00;99.90;;;;;;6274780;28;20041;-80
2022/09/04 04:28:00;;;;;;;3.45;1.25;;;15.00;99.90;;;;;;6249745;28;20192;-80
2022/09/04 04:31:15;;;;;;;2.75;1.17;;;15.00;99.90;;;;;;6249415;28;20132;-81
2022/09/04 04:34:26;;;;;;;4.78;1.17;;;14.90;99.90;;;;;;6248683;28;20053;-81
2022/09/04 04:37:43;;;;;;;1.63;1.17;;;15.00;99.90;;;;;;6249333;28;20045;-80
2022/09/04 04:41:09;;;;;;;6.30;1.60;;;14.90;99.90;;;;;;6248823;28;20041;-81
2022/09/04 04:44:16;;;;;;;4.28;1.70;;;14.90;99.90;;;;;;6248871;28;20076;-81
2022/09/04 04:47:26;;;;;;;1.47;0.90;;;14.90;99.90;;;;;;6253648;28;20053;-81
2022/09/04 04:50:39;;;;;;;3.42;1.70;;;14.90;99.90;;;;;;6254611;28;20387;-80
2022/09/04 04:53:49;;;;;;;8.52;1.13;;;14.90;99.90;;;;;;6254588;28;20055;-80
2022/09/04 04:57:01;;;;;;;6.80;1.50;;;14.90;99.90;;;;;;6253851;28;20423;-80
2022/09/04 05:00:15;;;;;;;2.90;1.08;;;15.00;99.90;;;;;;6253231;28;20049;-80
2022/09/04 05:03:24;;;;;;;3.10;1.25;;;14.90;99.90;;;;;;6252825;28;20147;-81
2022/09/04 05:06:36;;;;;;;2.58;1.40;;;14.90;99.90;;;;;;6253975;28;20060;-80
2022/09/04 05:09:47;;;;;;;8.25;1.67;;;15.00;99.90;;;;;;6253446;28;20049;-82
2022/09/04 05:13:00;;;;;;;2.33;1.25;;;15.00;99.90;;;;;;6253267;28;20076;-81
2022/09/04 05:16:08;;;;;;;2.83;1.35;;;15.10;99.90;;;;;;6253068;28;20045;-81
2022/09/04 05:19:21;;;;;;;3.45;1.70;;;15.10;99.90;;;;;;6252705;28;20049;-80
2022/09/04 05:22:31;;;;;;;4.88;1.38;;;15.20;99.90;;;;;;6253047;28;20076;-81
2022/09/04 05:25:40;;;;;;;1.77;1.10;;;15.30;99.90;;;;;;6260272;28;20045;-81
2022/09/04 05:28:48;;;;;;;;;;;15.50;99.90;;;;;;6277071;28;20446;-81
2022/09/04 05:31:56;;;;;;;4.18;1.40;;;15.60;99.90;;;;;;6277481;28;19921;-81
2022/09/04 05:35:11;;;;;;;3.28;0.90;;;15.80;99.90;;;;;;6277085;28;20056;-80
2022/09/04 05:38:20;;;;;;;2.88;1.10;;;15.90;99.90;;;;;;6276504;28;20557;-81
2022/09/04 05:41:37;;;;;;;4.18;1.05;;;16.10;99.90;;;;;;6276186;28;20041;-80
2022/09/04 05:44:55;;;;;;;5.80;0.90;;;16.20;99.90;;;;;;6277516;28;20052;-80
2022/09/04 05:48:08;;;;;;;4.68;1.25;;;16.40;99.90;;;;;;6277545;28;20049;-80
2022/09/04 05:51:42;;;;;;;4.43;1.02;;;16.60;99.90;;;;;;6278495;28;20052;-81
2022/09/04 05:55:05;;;;;;;1.70;0.77;;;16.90;99.90;;;;;;6280636;28;20064;-82
2022/09/04 05:58:27;;;;;;;2.67;1.25;;;17.20;99.90;;;;;;6278457;28;20045;-82
2022/09/04 06:01:53;;;;;;;2.88;0.75;;;17.40;99.90;;;;;;6274557;28;20052;-80
2022/09/04 06:05:20;;;;;;;6.88;1.33;;;17.70;99.90;;;;;;6273194;28;20060;-80
2022/09/04 06:08:32;;;;;;;3.10;1.00;;;18.00;99.90;;;;;;6273381;28;20053;-81
2022/09/04 06:11:50;;;;;;;5.53;0.73;;;18.20;99.90;;;;;;6273832;28;20045;-80
2022/09/04 06:15:07;;;;;;;3.70;1.48;;;18.50;99.90;;;;;;6273912;28;20045;-82
2022/09/04 06:18:20;;;;;;;4.53;0.98;;;18.80;99.90;;;;;;6273177;28;20040;-81
2022/09/04 06:21:56;;;;;;;4.43;0.93;;;19.10;99.90;;;;;;6275347;28;20052;-81
2022/09/04 06:25:22;;;;;;;2.13;0.95;;;19.40;99.90;;;;;;6276215;28;20049;-81
2022/09/04 06:28:42;;;;;;;3.38;1.30;;;19.70;99.90;;;;;;6274829;28;20569;-81
2022/09/04 06:32:15;;;;;;;2.28;1.80;;;20.00;99.90;;;;;;6282026;28;20040;-82
2022/09/04 06:35:51;;;;;;;2.88;1.10;;;20.30;99.90;;;;;;6302036;28;20063;-81
2022/09/04 06:39:07;;;;;;;3.75;1.35;;;20.70;99.90;;;;;;6299457;28;20052;-83
2022/09/04 06:42:28;;;;;;;2.28;1.48;;;21.00;99.90;;;;;;6300064;28;20051;-83
2022/09/04 06:45:48;;;;;;;8.13;2.35;;;21.30;99.90;;;;;;6301983;28;20045;-82
2022/09/04 06:49:04;;;;;;;2.55;1.83;;;21.50;99.90;;;;;;6299184;28;20048;-81
2022/09/04 06:52:18;;;;;;;2.17;1.52;;;21.80;99.90;;;;;;6299343;28;20044;-81
2022/09/04 06:55:29;;;;;;;3.30;1.60;;;22.20;99.90;;;;;;6300986;28;20131;-80
2022/09/04 06:59:04;;;;;;;4.30;1.63;;;22.70;99.70;;;;;;6298352;28;20045;-79
2022/09/04 07:02:17;;;;;;;3.58;2.50;;;23.50;98.00;;;;;;6295339;28;20071;-79
2022/09/04 07:05:27;;;;;;;3.58;1.58;;;24.50;96.40;;;;;;6295692;28;20521;-79
2022/09/04 07:08:47;;;;;;;6.05;1.85;;;25.60;94.40;;;;;;6296030;28;20048;-79
2022/09/04 07:12:24;;;;;;;3.03;2.10;;;27.30;91.00;;;;;;6295984;28;20056;-80
2022/09/04 07:15:57;;;;;;;8.57;2.30;;;29.00;83.80;;;;;;6296783;28;20063;-80
2022/09/04 07:19:17;;;;;;;2.90;1.88;;;30.20;76.90;;;;;;6286439;28;20055;-81
2022/09/04 07:22:47;;;;;;;5.85;1.92;;;31.00;72.60;;;;;;6297107;28;20083;-80
2022/09/04 07:25:59;;;;;;;2.80;1.27;;;32.10;67.90;;;;;;6296880;28;20056;-81
2022/09/04 07:29:14;;;;;;;1.52;1.20;;;32.90;64.00;;;;;;6280124;28;20506;-80
2022/09/04 07:32:22;;;;;;;3.78;1.45;;;33.80;61.40;;;;;;6281137;28;20048;-81
2022/09/04 07:35:30;;;;;;;4.07;1.38;;;34.50;58.30;;;;;;6297439;28;20044;-82
2022/09/04 07:38:37;;;;;;;2.38;0.93;;;34.50;56.40;;;;;;6298479;28;20070;-81
2022/09/04 07:41:46;;;;;;;1.33;0.90;;;34.40;56.10;;;;;;6298552;28;20049;-81
2022/09/04 07:44:54;;;;;;;2.22;1.15;;;34.30;56.10;;;;;;6299009;28;20044;-82
2022/09/04 07:48:05;;;;;;;2.40;1.48;;;34.10;55.60;;;;;;6298887;28;20442;-80
2022/09/04 07:51:12;;;;;;;3.83;1.77;;;33.80;55.80;;;;;;6302743;28;20060;-82
2022/09/04 07:54:32;;;;;;;9.15;1.17;;;33.40;56.10;;;;;;6303386;28;20454;-82
2022/09/04 07:58:10;;;;;;;3.08;0.68;;;32.90;56.30;;;;;;6303818;28;20071;-82
2022/09/04 08:01:39;;;;;;;2.97;1.05;;;32.40;57.40;;;;;;6303100;28;20049;-82
2022/09/04 08:05:02;;;;;;;1.75;0.80;;;32.50;57.40;;;;;;6303784;28;20049;-82
2022/09/04 08:08:50;;;;;;;3.20;0.95;;;32.70;57.00;;;;;;6304067;28;20051;-82
2022/09/04 08:12:15;;;;;;;1.08;0.68;;;33.10;55.80;;;;;;6229956;28;20041;-82
2022/09/04 08:15:20;;;;;;;2.13;0.98;;;33.70;54.50;;;;;;6303562;28;20053;-81
2022/09/04 08:18:35;;;;;;;1.52;0.93;;;34.30;53.10;;;;;;6300226;28;20172;-81
2022/09/04 08:21:40;;;;;;;1.45;0.70;;;35.00;51.90;;;;;;6301649;28;20047;-82
2022/09/04 08:25:07;;;;;;;3.75;1.05;;;35.50;50.40;;;;;;6272103;28;20897;-82
2022/09/04 08:28:26;;;;;;;0.98;0.55;;;35.80;50.00;;;;;;6272228;28;20550;-82
2022/09/04 08:31:32;;;;;;;3.22;1.20;;;35.50;49.50;;;;;;6281990;28;20048;-82
2022/09/04 08:35:03;;;;;;;1.23;0.93;;;34.80;50.40;;;;;;6328708;28;20111;-83
2022/09/04 08:38:34;;;;;;;2.40;1.70;;;33.70;52.40;;;;;;6270600;28;20057;-84
2022/09/04 08:42:12;;;;;;;2.03;0.70;;;32.60;54.80;;;;;;6278796;28;20045;-84
2022/09/04 08:45:53;;;;;;;1.47;0.90;;;32.00;56.30;;;;;;6278195;28;20055;-84
2022/09/04 08:49:32;;;;;;;2.20;1.25;;;31.50;57.40;;;;;;6277564;28;20049;-84
2022/09/04 08:53:13;;;;;;;2.00;0.98;;;31.10;58.60;;;;;;6277921;28;20037;-84
2022/09/04 08:56:26;;;;;;;3.22;1.08;;;30.70;60.00;;;;;;6276830;28;20059;-83
2022/09/04 08:59:56;;;;;;;4.82;0.80;;;30.40;60.90;;;;;;6277066;28;20049;-84
2022/09/04 09:03:48;;;;;;;1.30;0.65;;;30.20;60.00;;;;;;6274954;28;20049;-84
2022/09/04 09:07:18;;;;;;;2.03;0.93;;;30.00;61.80;;;;;;6272387;28;20052;-84
2022/09/04 09:10:39;;;;;;;1.33;0.60;;;30.00;61.70;;;;;;6273557;28;20053;-83
2022/09/04 09:14:21;;;;;;;1.38;1.02;;;30.10;61.10;;;;;;6276056;28;20064;-83
2022/09/04 09:17:36;;;;;;;2.50;0.68;;;30.10;61.40;;;;;;6267640;28;20051;-83
2022/09/04 09:20:50;;;;;;;1.13;0.47;;;30.10;60.30;;;;;;6275055;28;20060;-83
2022/09/04 09:24:15;;;;;;;1.63;0.50;;;30.00;58.20;;;;;;6276368;28;20406;-83
2022/09/04 09:28:04;;;;;;;1.00;0.75;;;29.70;60.00;;;;;;6277107;28;20053;-84
2022/09/04 09:31:50;;;;;;;0.52;0.30;;;29.70;60.40;;;;;;6297415;28;20059;-84
2022/09/04 09:35:20;;;;;;;1.25;0.50;;;29.90;60.20;;;;;;6279098;28;20051;-85
2022/09/04 09:39:05;;;;;;;3.25;0.68;;;30.10;59.90;;;;;;6280227;28;20056;-84
2022/09/04 09:42:40;;;;;;;4.50;0.90;;;30.40;60.20;;;;;;6304341;28;20044;-85
2022/09/04 09:46:00;;;;;;;2.55;0.50;;;31.40;58.60;;;;;;6283452;28;20123;-85
2022/09/04 09:49:56;;;;;;;2.30;0.68;;;32.30;57.80;;;;;;6277728;28;20056;-85
2022/09/04 09:53:37;;;;;;;3.88;0.73;;;32.60;56.90;;;;;;6279436;28;20045;-84
2022/09/04 09:57:10;;;;;;;3.45;0.77;;;32.50;56.70;;;;;;6279275;28;20041;-84
2022/09/04 10:00:16;;;;;;;1.27;0.85;;;32.20;56.00;;;;;;6272253;28;20045;-84
2022/09/04 10:03:58;;;;;;;2.40;0.75;;;32.00;57.20;;;;;;6279200;28;20585;-84
2022/09/04 10:07:25;;;;;;;2.05;0.70;;;31.90;57.10;;;;;;6277000;28;20517;-85
2022/09/04 10:10:58;;;;;;;1.83;0.80;;;31.90;56.90;;;;;;6279275;28;20140;-85
2022/09/04 10:14:34;;;;;;;4.47;0.73;;;32.00;57.10;;;;;;6279785;28;20071;-85
2022/09/04 10:17:56;;;;;;;3.20;0.60;;;32.10;55.90;;;;;;6277371;28;20073;-85
2022/09/04 10:21:27;;;;;;;3.20;0.85;;;32.10;55.70;;;;;;6278093;28;20045;-85
2022/09/04 10:24:52;;;;;;;0.95;0.50;;;32.10;55.10;;;;;;6275756;28;20052;-85
2022/09/04 10:28:28;;;;;;;1.42;0.95;;;32.40;53.70;;;;;;6272005;28;20073;-84
2022/09/04 10:31:58;;;;;;;4.75;0.50;;;32.60;52.50;;;;;;6265688;28;20056;-84
2022/09/04 10:35:16;;;;;;;1.98;0.82;;;32.80;51.20;;;;;;6253993;28;20053;-85
2022/09/04 10:38:35;;;;;;;1.98;0.50;;;33.10;50.80;;;;;;6305746;28;20040;-84
2022/09/04 10:42:03;;;;;;;1.15;0.40;;;33.10;51.20;;;;;;6329000;28;20635;-85
2022/09/04 10:45:24;;;;;;;4.85;0.30;;;33.10;51.40;;;;;;6319421;28;20051;-84
2022/09/04 10:48:49;;;;;;;3.17;0.50;;;33.30;51.10;;;;;;6324444;28;20659;-84
2022/09/04 10:52:29;;;;;;;0.95;0.50;;;33.50;48.70;;;;;;6326259;28;20046;-83
2022/09/04 10:55:58;;;;;;;5.30;0.30;;;33.70;48.30;;;;;;6323417;28;20051;-84
2022/09/04 10:59:20;;;;;;;0.90;0.28;;;33.90;47.00;;;;;;6292913;28;20041;-84
2022/09/04 11:03:03;;;;;;;1.55;0.47;;;34.30;46.50;;;;;;6300595;28;20052;-84
2022/09/04 11:06:37;;;;;;;2.90;0.30;;;34.70;45.70;;;;;;6295979;28;20049;-83
2022/09/04 11:10:13;;;;;;;0.75;0.45;;;34.50;45.10;;;;;;6296883;28;20560;-84
2022/09/04 11:14:05;;;;;;;1.45;0.38;;;34.50;45.10;;;;;;6294342;28;20045;-85
2022/09/04 11:17:37;;;;;;;1.77;0.40;;;34.80;43.50;;;;;;6296329;28;20044;-83
2022/09/04 11:21:20;;;;;;;0.50;0.20;;;35.00;42.80;;;;;;6296873;28;20491;-84
2022/09/04 11:24:58;;;;;;;1.35;0.40;;;35.20;43.00;;;;;;6296305;28;20052;-83
2022/09/04 11:28:13;;;;;;;1.67;0.50;;;35.60;42.70;;;;;;6293799;28;20048;-83
2022/09/04 11:31:33;;;;;;;1.90;0.50;;;35.90;42.60;;;;;;6295673;28;20291;-83
2022/09/04 11:35:00;;;;;;;2.80;0.63;;;36.20;41.20;;;;;;6294952;28;20044;-83
2022/09/04 11:38:23;;;;;;;0.73;0.37;;;36.20;41.10;;;;;;6296509;28;20045;-84
2022/09/04 11:42:04;;;;;;;0.93;0.43;;;36.10;41.70;;;;;;6296905;28;20036;-82
2022/09/04 11:45:32;;;;;;;2.25;0.20;;;36.20;41.20;;;;;;6297342;28;20075;-82
2022/09/04 11:49:08;;;;;;;2.22;0.35;;;36.30;40.60;;;;;;6298170;28;20049;-83
2022/09/04 11:52:27;;;;;;;19.88;2.28;;;36.70;40.90;;;;;;6298218;28;20044;-83
2022/09/04 11:55:47;;;;;;;18.33;2.40;;;36.80;40.20;;;;;;6303678;28;20048;-83
2022/09/04 11:59:04;;;;;;;3.58;0.77;;;36.90;40.10;;;;;;6301010;28;20046;-82
2022/09/04 12:02:46;;;;;;;2.63;0.57;;;36.80;39.70;;;;;;6296060;28;20494;-84
2022/09/04 12:06:05;;;;;;;0.88;0.40;;;36.50;38.40;;;;;;6261628;28;20124;-82
2022/09/04 12:09:32;;;;;;;2.80;0.45;;;36.00;38.80;;;;;;6270165;28;20048;-82
2022/09/04 12:13:13;;;;;;;2.13;0.50;;;35.90;38.90;;;;;;6260479;28;20040;-83
2022/09/04 12:16:55;;;;;;;1.90;0.40;;;35.80;39.60;;;;;;6270409;28;20060;-82
2022/09/04 12:20:15;;;;;;;1.23;0.57;;;35.90;38.50;;;;;;6270154;28;20064;-83
2022/09/04 12:23:31;;;;;;;2.67;0.35;;;36.20;37.40;;;;;;6269947;28;20045;-84
2022/09/04 12:27:03;;;;;;;2.53;0.43;;;36.40;36.30;;;;;;6271012;28;20056;-83
2022/09/04 12:30:10;;;;;;;1.90;0.70;;;36.50;36.40;;;;;;6262010;28;20049;-83
2022/09/04 12:33:41;;;;;;;0.75;0.47;;;36.60;35.40;;;;;;6269219;28;20051;-83
2022/09/04 12:37:12;;;;;;;0.50;0.30;;;36.70;35.20;;;;;;6245165;28;20053;-83
2022/09/04 12:40:40;;;;;;;1.38;0.57;;;37.10;36.10;;;;;;6247204;28;20042;-83
2022/09/04 12:43:57;;;;;;;1.80;0.50;;;37.40;35.30;;;;;;6245189;28;20056;-83
2022/09/04 12:47:12;;;;;;;3.20;0.63;;;37.50;34.50;;;;;;6245906;28;20054;-83
2022/09/04 12:50:35;;;;;;;0.13;0.10;;;37.50;35.30;;;;;;6244701;28;20129;-83
2022/09/04 12:54:16;;;;;;;1.25;0.40;;;37.80;35.40;;;;;;6244682;28;20057;-83
2022/09/04 12:57:31;;;;;;;0.32;0.20;;;37.90;34.90;;;;;;6233293;28;20755;-83
2022/09/04 13:00:43;;;;;;;2.38;0.30;;;38.00;35.20;;;;;;6265881;28;20490;-83
2022/09/04 13:03:57;;;;;;;0.45;0.20;;;38.10;35.00;;;;;;6269367;28;20045;-84
2022/09/04 13:07:13;;;;;;;0.85;0.30;;;38.20;32.90;;;;;;6273761;28;20687;-84
2022/09/04 13:10:23;;;;;;;1.07;0.30;;;38.10;33.40;;;;;;6274428;28;20418;-83
2022/09/04 13:13:34;;;;;;;1.10;0.32;;;38.10;34.20;;;;;;6274615;28;20048;-83
2022/09/04 13:16:43;;;;;;;0.63;0.20;;;38.20;33.70;;;;;;6274339;28;20427;-83
2022/09/04 13:19:54;;;;;;;0.60;0.30;;;38.30;33.70;;;;;;6274351;28;20037;-84
2022/09/04 13:23:13;;;;;;;2.58;0.40;;;38.40;33.70;;;;;;6275814;28;20387;-83
2022/09/04 13:26:36;;;;;;;1.02;0.20;;;38.30;33.70;;;;;;6273998;28;20064;-83
2022/09/04 13:29:46;;;;;;;2.08;0.32;;;38.00;33.90;;;;;;6294183;28;20584;-83
2022/09/04 13:33:10;;;;;;;0.45;0.20;;;37.80;34.40;;;;;;6298013;28;20102;-83
2022/09/04 13:36:23;;;;;;;0.60;0.20;;;37.80;34.40;;;;;;6294236;28;20075;-84
2022/09/04 13:39:54;;;;;;;0.57;0.30;;;37.40;34.50;;;;;;6298085;28;20055;-82
2022/09/04 13:43:33;;;;;;;1.27;0.30;;;37.10;34.10;;;;;;6298809;28;20080;-83
2022/09/04 13:46:40;;;;;;;0.80;0.20;;;36.90;34.60;;;;;;6298472;28;20494;-82
2022/09/04 13:49:46;;;;;;;;;;;37.00;34.30;;;;;;6323986;22;20035;-82
2022/09/04 13:52:54;;;;;;;0.75;0.35;;;37.10;33.40;;;;;;6333112;28;20008;-82
2022/09/04 13:56:00;;;;;;;3.75;0.30;;;36.90;33.60;;;;;;6333475;28;20044;-81
2022/09/04 13:59:08;;;;;;;0.30;0.10;;;37.00;33.20;;;;;;6325963;28;20048;-82
2022/09/04 14:02:13;;;;;;;1.33;0.40;;;36.90;34.00;;;;;;6332878;28;20048;-81
2022/09/04 14:05:21;;;;;;;0.70;0.40;;;36.80;33.30;;;;;;6333227;28;20539;-82
2022/09/04 14:12:49;;;;;;;0.97;0.37;;;37.00;33.00;;;;;;6325989;28;20039;-81
2022/09/04 14:19:41;;;;;;;1.02;0.30;;;37.20;32.80;;;;;;6303405;28;20289;-83
2022/09/04 14:23:13;;;;;;;0.60;0.20;;;37.10;32.70;;;;;;6334821;28;20052;-82
2022/09/04 14:26:32;;;;;;;1.95;0.15;;;37.10;32.10;;;;;;6298838;28;20056;-82
2022/09/04 14:33:52;;;;;;;0.47;0.20;;;37.50;33.10;;;;;;6301251;28;20044;-82
2022/09/04 14:37:15;;;;;;;0.73;0.40;;;37.60;33.20;;;;;;6288819;28;20128;-82
2022/09/04 14:47:43;;;;;;;0.50;0.20;;;37.50;33.30;;;;;;6291257;28;20048;-81
2022/09/04 14:50:50;;;;;;;5.43;0.30;;;37.60;33.50;;;;;;6311807;28;20055;-81
2022/09/04 14:57:41;;;;;;;2.80;0.30;;;37.70;32.80;;;;;;6296336;28;20069;-82
2022/09/04 15:01:26;;;;;;;0.55;0.20;;;37.70;33.20;;;;;;6311495;28;20032;-81
2022/09/04 15:04:37;;;;;;;1.05;0.47;;;37.70;33.00;;;;;;6310281;28;20126;-82
2022/09/04 15:07:58;;;;;;;1.02;0.40;;;37.70;33.40;;;;;;6301918;28;20104;-82
2022/09/04 15:14:34;;;;;;;0.20;0.10;;;37.60;32.90;;;;;;6305664;28;20074;-82
2022/09/04 15:17:54;;;;;;;0.80;0.33;;;37.50;32.70;;;;;;6313242;28;20068;-82
2022/09/04 15:21:03;;;;;;;0.68;0.40;;;37.30;33.70;;;;;;6301091;28;20062;-82
2022/09/04 15:24:24;;;;;;;0.50;0.28;;;37.00;32.60;;;;;;6302216;28;20040;-81
2022/09/04 15:27:44;;;;;;;1.17;0.40;;;36.60;33.00;;;;;;6319414;28;20369;-82
2022/09/04 15:35:09;;;;;;;2.20;0.45;;;35.40;33.80;;;;;;6308419;28;20072;-81
2022/09/04 15:38:26;;;;;;;2.50;0.55;;;34.80;34.30;;;;;;6326499;28;20089;-82
2022/09/04 15:46:02;;;;;;;2.35;1.70;;;33.90;35.80;;;;;;6283963;28;20056;-81
2022/09/04 15:53:09;;;;;;;1.42;0.47;;;32.90;37.10;;;;;;6307324;22;20140;-81
2022/09/04 15:56:35;;;;;;;0.60;0.30;;;32.60;37.40;;;;;;6235109;28;20048;-82
2022/09/04 16:04:11;;;;;;;1.30;0.47;;;31.80;37.70;;;;;;6121457;29;20066;-81
2022/09/04 16:07:45;;;;;;;0.68;0.40;;;31.40;38.90;;;;;;6215413;28;20053;-82
2022/09/04 16:18:22;;;;;;;0.88;0.32;;;30.80;40.30;;;;;;6215129;28;20429;-81
2022/09/04 16:21:39;;;;;;;1.35;0.40;;;30.60;40.40;;;;;;6225416;28;20060;-81
2022/09/04 16:24:44;;;;;;;1.45;0.80;;;30.50;40.70;;;;;;6227218;28;20053;-81
2022/09/04 16:27:52;;;;;;;1.45;0.88;;;30.40;40.90;;;;;;6227503;28;20125;-80
2022/09/04 16:30:57;;;;;;;1.38;0.40;;;30.30;41.20;;;;;;6229411;28;20049;-81
2022/09/04 16:34:12;;;;;;;4.38;0.40;;;30.10;41.00;;;;;;6227021;28;20117;-81
2022/09/04 16:37:18;;;;;;;1.15;0.35;;;30.10;41.60;;;;;;6235145;28;20068;-80
2022/09/04 16:40:27;;;;;;;4.32;0.50;;;29.90;41.80;;;;;;6250825;28;20045;-80
2022/09/04 16:43:30;;;;;;;1.63;0.60;;;29.80;42.90;;;;;;6256645;28;20051;-80
2022/09/04 16:46:36;;;;;;;0.32;0.30;;;29.70;42.20;;;;;;6259692;28;20407;-80
2022/09/04 16:49:46;;;;;;;0.85;0.40;;;29.50;42.10;;;;;;6258113;28;20454;-81
2022/09/04 16:53:11;;;;;;;1.85;0.63;;;29.50;42.70;;;;;;6257704;28;20434;-81
2022/09/04 16:56:21;;;;;;;2.25;0.90;;;29.40;43.20;;;;;;6249596;28;20046;-80
2022/09/04 16:59:28;;;;;;;0.60;0.43;;;29.30;43.20;;;;;;6232466;28;20715;-81
2022/09/04 17:02:41;;;;;;;5.65;0.63;;;29.10;44.10;;;;;;6233953;28;20056;-79
2022/09/04 17:05:48;;;;;;;0.40;0.30;;;29.10;43.70;;;;;;6230843;28;20042;-80
2022/09/04 17:08:56;;;;;;;0.40;0.30;;;29.00;44.20;;;;;;6235192;28;20052;-80
2022/09/04 17:12:12;;;;;;;0.57;0.32;;;28.80;44.50;;;;;;6232065;28;20046;-80
2022/09/04 17:15:25;;;;;;;1.15;0.68;;;28.70;44.60;;;;;;6228289;28;20054;-81
2022/09/04 17:18:28;;;;;;;3.83;0.45;;;28.60;45.30;;;;;;6228526;28;20054;-79
2022/09/04 17:25:07;;;;;;;3.45;0.60;;;28.50;47.90;;;;;;6229218;28;20470;-79
2022/09/04 17:28:39;;;;;;;1.20;0.38;;;28.40;48.50;;;;;;6229313;28;20053;-79
2022/09/04 17:31:50;;;;;;;2.45;0.40;;;28.20;49.60;;;;;;6228513;28;20412;-79
2022/09/04 17:34:59;;;;;;;3.30;0.70;;;28.10;50.90;;;;;;6231323;28;20052;-79
2022/09/04 17:38:14;;;;;;;2.45;0.50;;;27.90;52.30;;;;;;6228124;28;20060;-80
2022/09/04 17:41:21;;;;;;;4.07;0.40;;;27.70;53.50;;;;;;6203299;28;20057;-80
2022/09/04 17:44:34;;;;;;;4.35;1.80;;;27.50;54.70;;;;;;6203108;28;20057;-80
2022/09/04 17:47:41;;;;;;;6.13;0.82;;;27.30;55.40;;;;;;6208122;28;20221;-81
2022/09/04 17:50:49;;;;;;;3.60;0.55;;;27.10;55.80;;;;;;6208499;28;20047;-81
2022/09/04 17:53:55;;;;;;;;;;;26.90;56.40;;;;;;6202592;28;20046;-80
2022/09/04 17:57:01;;;;;;;1.75;0.52;;;26.60;56.90;;;;;;6217645;28;19921;-79
2022/09/04 18:00:07;;;;;;;2.15;0.85;;;26.20;58.40;;;;;;6223116;28;20125;-80
2022/09/04 18:03:20;;;;;;;3.40;0.70;;;25.80;59.50;;;;;;6230869;28;20073;-80
2022/09/04 18:06:25;;;;;;;3.67;0.80;;;25.40;60.60;;;;;;6231223;28;20042;-80
2022/09/04 18:09:36;;;;;;;3.05;0.80;;;25.10;61.30;;;;;;6230892;28;20504;-80